sensor_id;sensor_type;location;lat;lon;timestamp;temperature;humidity
21676;DHT22;10999;51.332;9.458;2022-12-29T00:01:59;8.00;85.50
21676;DHT22;10999;51.332;9.458;2022-12-29T00:04:26;8.00;85.70
21676;DHT22;10999;51.332;9.458;2022-12-29T00:06:53;8.10;85.60
21676;DHT22;10999;51.332;9.458;2022-12-29T00:09:20;8.10;85.40
21676;DHT22;10999;51.332;9.458;2022-12-29T00:11:47;8.20;85.20
21676;DHT22;10999;51.332;9.458;2022-12-29T00:14:13;8.20;84.90
21676;DHT22;10999;51.332;9.458;2022-12-29T00:16:58;8.20;84.80
21676;DHT22;10999;51.332;9.458;2022-12-29T00:19:25;8.20;85.00
21676;DHT22;10999;51.332;9.458;2022-12-29T00:22:11;8.20;84.90
21676;DHT22;10999;51.332;9.458;2022-12-29T00:24:57;8.20;84.90
21676;DHT22;10999;51.332;9.458;2022-12-29T00:27:27;8.30;85.10
21676;DHT22;10999;51.332;9.458;2022-12-29T00:30:19;8.30;84.80
21676;DHT22;10999;51.332;9.458;2022-12-29T00:33:13;8.30;84.60
21676;DHT22;10999;51.332;9.458;2022-12-29T00:36:19;8.30;84.60
21676;DHT22;10999;51.332;9.458;2022-12-29T00:38:54;8.40;84.40
21676;DHT22;10999;51.332;9.458;2022-12-29T00:41:40;8.30;84.90
21676;DHT22;10999;51.332;9.458;2022-12-29T00:44:25;8.40;85.00
21676;DHT22;10999;51.332;9.458;2022-12-29T00:46:52;8.40;85.50
21676;DHT22;10999;51.332;9.458;2022-12-29T00:49:19;8.50;84.50
21676;DHT22;10999;51.332;9.458;2022-12-29T00:51:59;8.50;84.40
21676;DHT22;10999;51.332;9.458;2022-12-29T00:54:28;8.50;84.70
21676;DHT22;10999;51.332;9.458;2022-12-29T00:56:55;8.50;85.00
21676;DHT22;10999;51.332;9.458;2022-12-29T00:59:22;8.50;85.10
21676;DHT22;10999;51.332;9.458;2022-12-29T01:01:51;8.50;85.20
21676;DHT22;10999;51.332;9.458;2022-12-29T01:04:21;8.50;85.60
21676;DHT22;10999;51.332;9.458;2022-12-29T01:06:48;8.50;85.70
21676;DHT22;10999;51.332;9.458;2022-12-29T01:09:15;8.50;85.80
21676;DHT22;10999;51.332;9.458;2022-12-29T01:12:00;8.50;86.00
21676;DHT22;10999;51.332;9.458;2022-12-29T01:14:27;8.50;86.70
21676;DHT22;10999;51.332;9.458;2022-12-29T01:16:55;8.50;86.80
21676;DHT22;10999;51.332;9.458;2022-12-29T01:19:22;8.50;87.40
21676;DHT22;10999;51.332;9.458;2022-12-29T01:21:49;8.60;87.10
21676;DHT22;10999;51.332;9.458;2022-12-29T01:24:16;8.60;86.80
21676;DHT22;10999;51.332;9.458;2022-12-29T01:26:44;8.70;86.60
21676;DHT22;10999;51.332;9.458;2022-12-29T01:29:11;8.70;86.50
21676;DHT22;10999;51.332;9.458;2022-12-29T01:31:38;8.70;86.60
21676;DHT22;10999;51.332;9.458;2022-12-29T01:34:05;8.70;86.90
21676;DHT22;10999;51.332;9.458;2022-12-29T01:36:33;8.70;86.30
21676;DHT22;10999;51.332;9.458;2022-12-29T01:39:00;8.70;86.20
21676;DHT22;10999;51.332;9.458;2022-12-29T01:41:26;8.80;86.20
21676;DHT22;10999;51.332;9.458;2022-12-29T01:43:56;8.80;86.30
21676;DHT22;10999;51.332;9.458;2022-12-29T01:46:26;8.80;85.90
21676;DHT22;10999;51.332;9.458;2022-12-29T01:51:42;8.90;85.70
21676;DHT22;10999;51.332;9.458;2022-12-29T01:54:15;8.90;85.70
21676;DHT22;10999;51.332;9.458;2022-12-29T01:56:44;9.00;85.20
21676;DHT22;10999;51.332;9.458;2022-12-29T01:59:16;9.00;85.30
21676;DHT22;10999;51.332;9.458;2022-12-29T02:01:44;9.00;85.40
21676;DHT22;10999;51.332;9.458;2022-12-29T02:04:12;9.00;85.50
21676;DHT22;10999;51.332;9.458;2022-12-29T02:06:49;9.00;85.50
21676;DHT22;10999;51.332;9.458;2022-12-29T02:09:17;9.10;85.40
21676;DHT22;10999;51.332;9.458;2022-12-29T02:11:44;9.10;85.20
21676;DHT22;10999;51.332;9.458;2022-12-29T02:14:13;9.10;85.30
21676;DHT22;10999;51.332;9.458;2022-12-29T02:19:41;9.10;85.10
21676;DHT22;10999;51.332;9.458;2022-12-29T02:31:03;9.30;84.80
21676;DHT22;10999;51.332;9.458;2022-12-29T02:33:52;9.20;85.30
21676;DHT22;10999;51.332;9.458;2022-12-29T02:39:07;9.20;86.30
21676;DHT22;10999;51.332;9.458;2022-12-29T02:47:20;9.10;89.40
21676;DHT22;10999;51.332;9.458;2022-12-29T02:49:55;9.10;89.50
21676;DHT22;10999;51.332;9.458;2022-12-29T02:52:28;9.10;89.60
21676;DHT22;10999;51.332;9.458;2022-12-29T02:54:58;9.10;89.70
21676;DHT22;10999;51.332;9.458;2022-12-29T03:00:01;9.20;88.80
21676;DHT22;10999;51.332;9.458;2022-12-29T03:05:38;9.20;88.90
21676;DHT22;10999;51.332;9.458;2022-12-29T03:11:05;9.10;89.10
21676;DHT22;10999;51.332;9.458;2022-12-29T03:13:39;9.10;89.10
21676;DHT22;10999;51.332;9.458;2022-12-29T03:16:34;9.10;89.80
21676;DHT22;10999;51.332;9.458;2022-12-29T03:19:03;9.10;89.50
21676;DHT22;10999;51.332;9.458;2022-12-29T03:21:46;9.10;89.70
21676;DHT22;10999;51.332;9.458;2022-12-29T03:24:36;9.10;90.00
21676;DHT22;10999;51.332;9.458;2022-12-29T03:27:06;9.10;89.90
21676;DHT22;10999;51.332;9.458;2022-12-29T03:29:57;9.10;90.30
21676;DHT22;10999;51.332;9.458;2022-12-29T03:32:28;9.10;90.20
21676;DHT22;10999;51.332;9.458;2022-12-29T03:34:58;9.10;90.30
21676;DHT22;10999;51.332;9.458;2022-12-29T03:37:37;9.10;90.20
21676;DHT22;10999;51.332;9.458;2022-12-29T03:40:06;9.10;90.40
21676;DHT22;10999;51.332;9.458;2022-12-29T03:42:35;9.00;90.50
21676;DHT22;10999;51.332;9.458;2022-12-29T03:45:04;9.00;90.50
21676;DHT22;10999;51.332;9.458;2022-12-29T03:47:32;9.00;90.60
21676;DHT22;10999;51.332;9.458;2022-12-29T03:49:59;9.00;90.90
21676;DHT22;10999;51.332;9.458;2022-12-29T03:52:26;9.00;90.90
21676;DHT22;10999;51.332;9.458;2022-12-29T03:54:52;9.00;90.60
21676;DHT22;10999;51.332;9.458;2022-12-29T03:57:19;9.00;90.50
21676;DHT22;10999;51.332;9.458;2022-12-29T03:59:45;9.00;90.40
21676;DHT22;10999;51.332;9.458;2022-12-29T04:02:12;9.10;90.50
21676;DHT22;10999;51.332;9.458;2022-12-29T04:04:40;9.20;90.30
21676;DHT22;10999;51.332;9.458;2022-12-29T04:07:06;9.30;90.10
21676;DHT22;10999;51.332;9.458;2022-12-29T04:09:33;9.40;89.60
21676;DHT22;10999;51.332;9.458;2022-12-29T04:12:00;9.60;88.10
21676;DHT22;10999;51.332;9.458;2022-12-29T04:14:26;9.70;87.50
21676;DHT22;10999;51.332;9.458;2022-12-29T04:16:53;9.70;88.10
21676;DHT22;10999;51.332;9.458;2022-12-29T04:19:20;9.80;88.70
21676;DHT22;10999;51.332;9.458;2022-12-29T04:21:46;9.80;88.80
21676;DHT22;10999;51.332;9.458;2022-12-29T04:24:13;9.80;89.00
21676;DHT22;10999;51.332;9.458;2022-12-29T04:26:40;9.70;89.20
21676;DHT22;10999;51.332;9.458;2022-12-29T04:29:07;9.70;89.80
21676;DHT22;10999;51.332;9.458;2022-12-29T04:31:34;9.70;90.20
21676;DHT22;10999;51.332;9.458;2022-12-29T04:34:01;9.70;90.50
21676;DHT22;10999;51.332;9.458;2022-12-29T04:36:27;9.70;90.60
21676;DHT22;10999;51.332;9.458;2022-12-29T04:38:56;9.70;91.40
21676;DHT22;10999;51.332;9.458;2022-12-29T04:41:23;9.70;91.50
21676;DHT22;10999;51.332;9.458;2022-12-29T04:43:50;9.80;91.80
21676;DHT22;10999;51.332;9.458;2022-12-29T04:46:17;9.80;92.10
21676;DHT22;10999;51.332;9.458;2022-12-29T04:48:44;9.70;92.70
21676;DHT22;10999;51.332;9.458;2022-12-29T04:51:10;9.70;93.20
21676;DHT22;10999;51.332;9.458;2022-12-29T04:53:38;9.70;93.70
21676;DHT22;10999;51.332;9.458;2022-12-29T04:56:05;9.60;93.80
21676;DHT22;10999;51.332;9.458;2022-12-29T04:58:32;9.60;93.90
21676;DHT22;10999;51.332;9.458;2022-12-29T05:00:58;9.60;94.50
21676;DHT22;10999;51.332;9.458;2022-12-29T05:03:25;9.50;95.00
21676;DHT22;10999;51.332;9.458;2022-12-29T05:05:56;9.50;95.60
21676;DHT22;10999;51.332;9.458;2022-12-29T05:08:23;9.40;96.00
21676;DHT22;10999;51.332;9.458;2022-12-29T05:10:54;9.40;96.40
21676;DHT22;10999;51.332;9.458;2022-12-29T05:13:20;9.30;96.80
21676;DHT22;10999;51.332;9.458;2022-12-29T05:15:52;9.30;97.00
21676;DHT22;10999;51.332;9.458;2022-12-29T05:18:19;9.30;97.20
21676;DHT22;10999;51.332;9.458;2022-12-29T05:20:46;9.30;97.50
21676;DHT22;10999;51.332;9.458;2022-12-29T05:23:13;9.20;97.50
21676;DHT22;10999;51.332;9.458;2022-12-29T05:25:40;9.30;98.00
21676;DHT22;10999;51.332;9.458;2022-12-29T05:28:06;9.20;97.90
21676;DHT22;10999;51.332;9.458;2022-12-29T05:30:33;9.30;97.50
21676;DHT22;10999;51.332;9.458;2022-12-29T05:33:00;9.30;97.50
21676;DHT22;10999;51.332;9.458;2022-12-29T05:35:26;9.40;97.20
21676;DHT22;10999;51.332;9.458;2022-12-29T05:37:53;9.40;96.70
21676;DHT22;10999;51.332;9.458;2022-12-29T05:40:20;9.40;96.80
21676;DHT22;10999;51.332;9.458;2022-12-29T05:42:46;9.40;97.00
21676;DHT22;10999;51.332;9.458;2022-12-29T05:45:13;9.50;96.50
21676;DHT22;10999;51.332;9.458;2022-12-29T05:47:40;9.50;96.90
21676;DHT22;10999;51.332;9.458;2022-12-29T05:50:07;9.60;97.10
21676;DHT22;10999;51.332;9.458;2022-12-29T05:52:33;9.60;97.30
21676;DHT22;10999;51.332;9.458;2022-12-29T05:55:00;9.60;97.70
21676;DHT22;10999;51.332;9.458;2022-12-29T05:57:27;9.50;98.20
21676;DHT22;10999;51.332;9.458;2022-12-29T05:59:53;9.50;98.60
21676;DHT22;10999;51.332;9.458;2022-12-29T06:02:20;9.50;98.60
21676;DHT22;10999;51.332;9.458;2022-12-29T06:04:47;9.50;98.70
21676;DHT22;10999;51.332;9.458;2022-12-29T06:07:13;9.40;98.70
21676;DHT22;10999;51.332;9.458;2022-12-29T06:09:40;9.40;98.70
21676;DHT22;10999;51.332;9.458;2022-12-29T06:12:07;9.40;98.70
21676;DHT22;10999;51.332;9.458;2022-12-29T06:14:33;9.40;98.70
21676;DHT22;10999;51.332;9.458;2022-12-29T06:17:00;9.30;98.70
21676;DHT22;10999;51.332;9.458;2022-12-29T06:19:27;9.30;98.70
21676;DHT22;10999;51.332;9.458;2022-12-29T06:21:53;9.40;98.70
21676;DHT22;10999;51.332;9.458;2022-12-29T06:24:21;9.40;98.50
21676;DHT22;10999;51.332;9.458;2022-12-29T06:26:48;9.40;98.20
21676;DHT22;10999;51.332;9.458;2022-12-29T06:29:14;9.50;97.90
21676;DHT22;10999;51.332;9.458;2022-12-29T06:31:46;9.50;97.60
21676;DHT22;10999;51.332;9.458;2022-12-29T06:34:13;9.50;97.50
21676;DHT22;10999;51.332;9.458;2022-12-29T06:36:39;9.50;97.60
21676;DHT22;10999;51.332;9.458;2022-12-29T06:39:06;9.50;97.70
21676;DHT22;10999;51.332;9.458;2022-12-29T06:41:33;9.50;98.30
21676;DHT22;10999;51.332;9.458;2022-12-29T06:43:59;9.40;98.60
21676;DHT22;10999;51.332;9.458;2022-12-29T06:46:26;9.50;98.80
21676;DHT22;10999;51.332;9.458;2022-12-29T06:48:53;9.50;99.10
21676;DHT22;10999;51.332;9.458;2022-12-29T06:51:19;9.40;99.30
21676;DHT22;10999;51.332;9.458;2022-12-29T06:53:46;9.40;99.80
21676;DHT22;10999;51.332;9.458;2022-12-29T06:56:13;9.30;99.90
21676;DHT22;10999;51.332;9.458;2022-12-29T06:58:39;9.30;99.90
21676;DHT22;10999;51.332;9.458;2022-12-29T07:01:06;9.30;99.90
21676;DHT22;10999;51.332;9.458;2022-12-29T07:03:33;9.20;99.90
21676;DHT22;10999;51.332;9.458;2022-12-29T07:06:00;9.20;99.90
21676;DHT22;10999;51.332;9.458;2022-12-29T07:08:26;9.30;99.90
21676;DHT22;10999;51.332;9.458;2022-12-29T07:10:53;9.30;99.90
21676;DHT22;10999;51.332;9.458;2022-12-29T07:13:20;9.30;99.90
21676;DHT22;10999;51.332;9.458;2022-12-29T07:15:47;9.20;99.90
21676;DHT22;10999;51.332;9.458;2022-12-29T07:18:14;9.20;99.90
21676;DHT22;10999;51.332;9.458;2022-12-29T07:20:40;9.20;99.90
21676;DHT22;10999;51.332;9.458;2022-12-29T07:23:07;9.20;99.90
21676;DHT22;10999;51.332;9.458;2022-12-29T07:25:34;9.10;99.90
21676;DHT22;10999;51.332;9.458;2022-12-29T07:28:03;9.10;99.90
21676;DHT22;10999;51.332;9.458;2022-12-29T07:30:30;9.10;99.90
21676;DHT22;10999;51.332;9.458;2022-12-29T07:32:57;9.10;99.90
21676;DHT22;10999;51.332;9.458;2022-12-29T07:35:24;9.10;99.90
21676;DHT22;10999;51.332;9.458;2022-12-29T07:37:50;9.10;99.90
21676;DHT22;10999;51.332;9.458;2022-12-29T07:40:17;9.20;99.90
21676;DHT22;10999;51.332;9.458;2022-12-29T07:42:44;9.20;99.90
21676;DHT22;10999;51.332;9.458;2022-12-29T07:45:10;9.20;99.90
21676;DHT22;10999;51.332;9.458;2022-12-29T07:47:37;9.20;99.90
21676;DHT22;10999;51.332;9.458;2022-12-29T07:50:04;9.20;99.90
21676;DHT22;10999;51.332;9.458;2022-12-29T07:52:31;9.20;99.90
21676;DHT22;10999;51.332;9.458;2022-12-29T07:54:58;9.20;99.90
21676;DHT22;10999;51.332;9.458;2022-12-29T07:57:25;9.20;99.90
21676;DHT22;10999;51.332;9.458;2022-12-29T07:59:58;9.30;99.90
21676;DHT22;10999;51.332;9.458;2022-12-29T08:02:25;9.30;99.90
21676;DHT22;10999;51.332;9.458;2022-12-29T08:04:53;9.20;99.90
21676;DHT22;10999;51.332;9.458;2022-12-29T08:07:19;9.20;99.90
21676;DHT22;10999;51.332;9.458;2022-12-29T08:09:46;9.20;99.90
21676;DHT22;10999;51.332;9.458;2022-12-29T08:12:13;9.20;99.90
21676;DHT22;10999;51.332;9.458;2022-12-29T08:14:39;9.10;99.90
21676;DHT22;10999;51.332;9.458;2022-12-29T08:17:06;9.10;99.90
21676;DHT22;10999;51.332;9.458;2022-12-29T08:19:33;9.10;99.90
21676;DHT22;10999;51.332;9.458;2022-12-29T08:21:59;9.20;99.90
21676;DHT22;10999;51.332;9.458;2022-12-29T08:24:26;9.20;99.90
21676;DHT22;10999;51.332;9.458;2022-12-29T08:26:53;9.20;99.90
21676;DHT22;10999;51.332;9.458;2022-12-29T08:29:19;9.20;99.90
21676;DHT22;10999;51.332;9.458;2022-12-29T08:31:48;9.20;99.90
21676;DHT22;10999;51.332;9.458;2022-12-29T08:34:14;9.20;99.90
21676;DHT22;10999;51.332;9.458;2022-12-29T08:36:41;9.30;99.90
21676;DHT22;10999;51.332;9.458;2022-12-29T08:39:08;9.30;99.90
21676;DHT22;10999;51.332;9.458;2022-12-29T08:41:34;9.20;99.90
21676;DHT22;10999;51.332;9.458;2022-12-29T08:44:01;9.20;99.90
21676;DHT22;10999;51.332;9.458;2022-12-29T08:46:28;9.20;99.90
21676;DHT22;10999;51.332;9.458;2022-12-29T08:48:54;9.20;99.90
21676;DHT22;10999;51.332;9.458;2022-12-29T08:51:21;9.20;99.90
21676;DHT22;10999;51.332;9.458;2022-12-29T08:53:50;9.20;99.90
21676;DHT22;10999;51.332;9.458;2022-12-29T08:56:17;9.10;99.90
21676;DHT22;10999;51.332;9.458;2022-12-29T08:58:43;9.00;98.90
21676;DHT22;10999;51.332;9.458;2022-12-29T09:01:10;8.90;97.30
21676;DHT22;10999;51.332;9.458;2022-12-29T09:03:37;8.80;96.40
21676;DHT22;10999;51.332;9.458;2022-12-29T09:06:24;8.80;96.30
21676;DHT22;10999;51.332;9.458;2022-12-29T09:08:53;8.70;96.00
21676;DHT22;10999;51.332;9.458;2022-12-29T09:11:23;8.70;96.20
21676;DHT22;10999;51.332;9.458;2022-12-29T09:13:51;8.70;96.40
21676;DHT22;10999;51.332;9.458;2022-12-29T09:16:19;8.70;96.70
21676;DHT22;10999;51.332;9.458;2022-12-29T09:18:46;8.70;96.70
21676;DHT22;10999;51.332;9.458;2022-12-29T09:21:13;8.70;97.20
21676;DHT22;10999;51.332;9.458;2022-12-29T09:23:40;8.70;97.40
21676;DHT22;10999;51.332;9.458;2022-12-29T09:26:07;8.80;97.20
21676;DHT22;10999;51.332;9.458;2022-12-29T09:28:34;8.80;97.20
21676;DHT22;10999;51.332;9.458;2022-12-29T09:31:02;8.90;97.80
21676;DHT22;10999;51.332;9.458;2022-12-29T09:33:29;8.90;98.20
21676;DHT22;10999;51.332;9.458;2022-12-29T09:35:57;8.90;98.60
21676;DHT22;10999;51.332;9.458;2022-12-29T09:38:25;9.00;99.40
21676;DHT22;10999;51.332;9.458;2022-12-29T09:46:24;9.30;99.90
21676;DHT22;10999;51.332;9.458;2022-12-29T09:49:18;9.30;99.90
21676;DHT22;10999;51.332;9.458;2022-12-29T09:51:51;9.40;99.90
21676;DHT22;10999;51.332;9.458;2022-12-29T09:54:56;9.50;99.90
21676;DHT22;10999;51.332;9.458;2022-12-29T09:57:38;10.00;99.90
21676;DHT22;10999;51.332;9.458;2022-12-29T10:00:19;10.40;99.60
21676;DHT22;10999;51.332;9.458;2022-12-29T10:03:00;10.70;94.60
21676;DHT22;10999;51.332;9.458;2022-12-29T10:08:16;11.10;90.60
21676;DHT22;10999;51.332;9.458;2022-12-29T10:10:55;11.00;89.40
21676;DHT22;10999;51.332;9.458;2022-12-29T10:16:30;10.80;88.60
21676;DHT22;10999;51.332;9.458;2022-12-29T10:19:28;10.60;88.60
21676;DHT22;10999;51.332;9.458;2022-12-29T10:24:38;10.60;89.40
21676;DHT22;10999;51.332;9.458;2022-12-29T10:27:12;10.70;89.80
21676;DHT22;10999;51.332;9.458;2022-12-29T10:29:52;10.70;88.90
21676;DHT22;10999;51.332;9.458;2022-12-29T10:32:26;10.70;86.10
21676;DHT22;10999;51.332;9.458;2022-12-29T10:35:00;10.70;85.50
21676;DHT22;10999;51.332;9.458;2022-12-29T10:37:38;10.60;83.30
21676;DHT22;10999;51.332;9.458;2022-12-29T10:40:42;10.50;84.00
21676;DHT22;10999;51.332;9.458;2022-12-29T10:45:47;10.40;84.60
21676;DHT22;10999;51.332;9.458;2022-12-29T10:48:22;10.30;85.20
21676;DHT22;10999;51.332;9.458;2022-12-29T10:50:58;10.20;85.80
21676;DHT22;10999;51.332;9.458;2022-12-29T10:53:35;10.10;85.60
21676;DHT22;10999;51.332;9.458;2022-12-29T10:56:14;10.10;86.20
21676;DHT22;10999;51.332;9.458;2022-12-29T10:58:48;10.20;86.80
21676;DHT22;10999;51.332;9.458;2022-12-29T11:01:16;10.20;88.10
21676;DHT22;10999;51.332;9.458;2022-12-29T11:04:04;10.20;88.80
21676;DHT22;10999;51.332;9.458;2022-12-29T11:06:32;10.20;88.00
21676;DHT22;10999;51.332;9.458;2022-12-29T11:09:08;10.30;88.30
21676;DHT22;10999;51.332;9.458;2022-12-29T11:11:36;10.30;86.70
21676;DHT22;10999;51.332;9.458;2022-12-29T11:14:16;10.30;85.90
21676;DHT22;10999;51.332;9.458;2022-12-29T11:16:44;10.30;85.30
21676;DHT22;10999;51.332;9.458;2022-12-29T11:19:27;10.30;85.80
21676;DHT22;10999;51.332;9.458;2022-12-29T11:21:54;10.30;83.70
21676;DHT22;10999;51.332;9.458;2022-12-29T11:24:26;10.30;82.50
21676;DHT22;10999;51.332;9.458;2022-12-29T11:26:55;10.40;80.90
21676;DHT22;10999;51.332;9.458;2022-12-29T11:29:40;10.40;81.90
21676;DHT22;10999;51.332;9.458;2022-12-29T11:32:17;10.40;80.80
21676;DHT22;10999;51.332;9.458;2022-12-29T11:34:53;10.40;80.60
21676;DHT22;10999;51.332;9.458;2022-12-29T11:37:33;10.40;80.40
21676;DHT22;10999;51.332;9.458;2022-12-29T11:40:06;10.40;79.00
21676;DHT22;10999;51.332;9.458;2022-12-29T11:42:55;10.40;78.60
21676;DHT22;10999;51.332;9.458;2022-12-29T11:45:24;10.40;78.40
21676;DHT22;10999;51.332;9.458;2022-12-29T11:50:32;10.40;75.80
21676;DHT22;10999;51.332;9.458;2022-12-29T11:53:04;10.40;76.20
21676;DHT22;10999;51.332;9.458;2022-12-29T11:55:32;10.40;75.20
21676;DHT22;10999;51.332;9.458;2022-12-29T11:58:02;10.40;76.60
21676;DHT22;10999;51.332;9.458;2022-12-29T12:00:36;10.40;73.90
21676;DHT22;10999;51.332;9.458;2022-12-29T12:03:24;10.30;75.10
21676;DHT22;10999;51.332;9.458;2022-12-29T12:05:56;10.40;74.70
21676;DHT22;10999;51.332;9.458;2022-12-29T12:08:44;10.40;73.60
21676;DHT22;10999;51.332;9.458;2022-12-29T12:11:14;10.40;73.70
21676;DHT22;10999;51.332;9.458;2022-12-29T12:14:04;10.30;72.90
21676;DHT22;10999;51.332;9.458;2022-12-29T12:17:04;10.40;69.20
21676;DHT22;10999;51.332;9.458;2022-12-29T12:19:47;10.30;70.40
21676;DHT22;10999;51.332;9.458;2022-12-29T12:22:37;10.40;70.90
21676;DHT22;10999;51.332;9.458;2022-12-29T12:25:29;10.30;69.10
21676;DHT22;10999;51.332;9.458;2022-12-29T12:28:21;10.30;69.60
21676;DHT22;10999;51.332;9.458;2022-12-29T12:30:53;10.30;68.40
21676;DHT22;10999;51.332;9.458;2022-12-29T12:33:39;10.30;69.30
21676;DHT22;10999;51.332;9.458;2022-12-29T12:39:38;10.30;68.70
21676;DHT22;10999;51.332;9.458;2022-12-29T13:05:20;10.40;69.40
21676;DHT22;10999;51.332;9.458;2022-12-29T13:10:50;10.40;71.10
21676;DHT22;10999;51.332;9.458;2022-12-29T13:23:52;10.40;72.30
21676;DHT22;10999;51.332;9.458;2022-12-29T13:26:26;10.40;72.70
21676;DHT22;10999;51.332;9.458;2022-12-29T13:29:03;10.40;71.80
21676;DHT22;10999;51.332;9.458;2022-12-29T13:31:52;10.40;71.90
21676;DHT22;10999;51.332;9.458;2022-12-29T13:34:36;10.40;71.80
21676;DHT22;10999;51.332;9.458;2022-12-29T13:37:12;10.40;71.40
21676;DHT22;10999;51.332;9.458;2022-12-29T13:39:48;10.40;72.10
21676;DHT22;10999;51.332;9.458;2022-12-29T13:42:18;10.40;72.50
21676;DHT22;10999;51.332;9.458;2022-12-29T13:44:58;10.50;72.20
21676;DHT22;10999;51.332;9.458;2022-12-29T13:47:42;10.40;72.50
21676;DHT22;10999;51.332;9.458;2022-12-29T13:50:19;10.40;71.20
21676;DHT22;10999;51.332;9.458;2022-12-29T14:01:42;10.40;71.70
21676;DHT22;10999;51.332;9.458;2022-12-29T14:04:13;10.40;72.40
21676;DHT22;10999;51.332;9.458;2022-12-29T14:06:41;10.40;72.20
21676;DHT22;10999;51.332;9.458;2022-12-29T14:09:41;10.40;72.60
21676;DHT22;10999;51.332;9.458;2022-12-29T14:12:31;10.40;73.30
21676;DHT22;10999;51.332;9.458;2022-12-29T14:17:40;10.30;74.80
21676;DHT22;10999;51.332;9.458;2022-12-29T14:20:18;10.30;74.60
21676;DHT22;10999;51.332;9.458;2022-12-29T14:23:52;10.30;74.80
21676;DHT22;10999;51.332;9.458;2022-12-29T14:26:17;10.30;74.60
21676;DHT22;10999;51.332;9.458;2022-12-29T14:28:48;10.30;75.80
21676;DHT22;10999;51.332;9.458;2022-12-29T14:36:41;10.20;76.40
21676;DHT22;10999;51.332;9.458;2022-12-29T14:39:43;10.20;76.60
21676;DHT22;10999;51.332;9.458;2022-12-29T14:44:53;10.20;77.30
21676;DHT22;10999;51.332;9.458;2022-12-29T14:47:32;10.10;76.50
21676;DHT22;10999;51.332;9.458;2022-12-29T14:55:41;10.10;76.40
21676;DHT22;10999;51.332;9.458;2022-12-29T14:58:26;10.10;76.10
21676;DHT22;10999;51.332;9.458;2022-12-29T15:00:54;10.10;75.30
21676;DHT22;10999;51.332;9.458;2022-12-29T15:03:38;10.00;75.50
21676;DHT22;10999;51.332;9.458;2022-12-29T15:06:11;10.00;74.90
21676;DHT22;10999;51.332;9.458;2022-12-29T15:08:50;10.00;74.00
21676;DHT22;10999;51.332;9.458;2022-12-29T15:11:19;10.00;74.10
21676;DHT22;10999;51.332;9.458;2022-12-29T15:13:47;9.90;74.10
21676;DHT22;10999;51.332;9.458;2022-12-29T15:16:30;9.90;74.00
21676;DHT22;10999;51.332;9.458;2022-12-29T15:18:58;9.90;74.20
21676;DHT22;10999;51.332;9.458;2022-12-29T15:21:35;9.90;72.40
21676;DHT22;10999;51.332;9.458;2022-12-29T15:24:03;9.90;70.70
21676;DHT22;10999;51.332;9.458;2022-12-29T15:26:38;9.90;69.00
21676;DHT22;10999;51.332;9.458;2022-12-29T15:29:05;9.90;68.10
21676;DHT22;10999;51.332;9.458;2022-12-29T15:31:31;9.80;68.10
21676;DHT22;10999;51.332;9.458;2022-12-29T15:34:09;9.80;67.40
21676;DHT22;10999;51.332;9.458;2022-12-29T15:36:40;9.70;68.00
21676;DHT22;10999;51.332;9.458;2022-12-29T15:39:23;9.70;68.80
21676;DHT22;10999;51.332;9.458;2022-12-29T15:41:56;9.70;66.00
21676;DHT22;10999;51.332;9.458;2022-12-29T15:44:42;9.70;65.70
21676;DHT22;10999;51.332;9.458;2022-12-29T15:47:17;9.60;66.30
21676;DHT22;10999;51.332;9.458;2022-12-29T15:49:47;9.60;66.00
21676;DHT22;10999;51.332;9.458;2022-12-29T15:52:19;9.60;65.60
21676;DHT22;10999;51.332;9.458;2022-12-29T15:54:49;9.60;65.70
21676;DHT22;10999;51.332;9.458;2022-12-29T15:57:23;9.60;64.80
21676;DHT22;10999;51.332;9.458;2022-12-29T15:59:50;9.60;65.20
21676;DHT22;10999;51.332;9.458;2022-12-29T16:02:17;9.50;65.60
21676;DHT22;10999;51.332;9.458;2022-12-29T16:04:45;9.40;65.50
21676;DHT22;10999;51.332;9.458;2022-12-29T16:07:32;9.40;65.70
21676;DHT22;10999;51.332;9.458;2022-12-29T16:10:25;9.30;66.40
21676;DHT22;10999;51.332;9.458;2022-12-29T16:12:52;9.30;66.30
21676;DHT22;10999;51.332;9.458;2022-12-29T16:15:19;9.20;66.60
21676;DHT22;10999;51.332;9.458;2022-12-29T16:17:50;9.10;67.30
21676;DHT22;10999;51.332;9.458;2022-12-29T16:20:21;9.10;66.50
21676;DHT22;10999;51.332;9.458;2022-12-29T16:22:55;9.10;66.90
21676;DHT22;10999;51.332;9.458;2022-12-29T16:25:25;9.10;66.50
21676;DHT22;10999;51.332;9.458;2022-12-29T16:27:54;9.10;65.50
21676;DHT22;10999;51.332;9.458;2022-12-29T16:30:26;9.10;66.00
21676;DHT22;10999;51.332;9.458;2022-12-29T16:33:01;9.00;65.80
21676;DHT22;10999;51.332;9.458;2022-12-29T16:35:39;9.00;66.10
21676;DHT22;10999;51.332;9.458;2022-12-29T16:38:14;8.90;66.40
21676;DHT22;10999;51.332;9.458;2022-12-29T16:41:02;8.90;66.90
21676;DHT22;10999;51.332;9.458;2022-12-29T16:43:34;8.80;67.10
21676;DHT22;10999;51.332;9.458;2022-12-29T16:48:34;8.70;68.50
21676;DHT22;10999;51.332;9.458;2022-12-29T16:51:13;8.70;70.20
21676;DHT22;10999;51.332;9.458;2022-12-29T16:53:42;8.70;71.40
21676;DHT22;10999;51.332;9.458;2022-12-29T16:56:15;8.60;72.40
21676;DHT22;10999;51.332;9.458;2022-12-29T16:58:48;8.60;72.70
21676;DHT22;10999;51.332;9.458;2022-12-29T17:01:15;8.50;73.10
21676;DHT22;10999;51.332;9.458;2022-12-29T17:03:52;8.50;73.70
21676;DHT22;10999;51.332;9.458;2022-12-29T17:06:21;8.40;73.90
21676;DHT22;10999;51.332;9.458;2022-12-29T17:08:49;8.40;74.10
21676;DHT22;10999;51.332;9.458;2022-12-29T17:11:31;8.40;74.40
21676;DHT22;10999;51.332;9.458;2022-12-29T17:17:08;8.40;74.10
21676;DHT22;10999;51.332;9.458;2022-12-29T17:19:37;8.40;74.10
21676;DHT22;10999;51.332;9.458;2022-12-29T17:22:22;8.40;74.40
21676;DHT22;10999;51.332;9.458;2022-12-29T17:24:52;8.40;74.60
21676;DHT22;10999;51.332;9.458;2022-12-29T17:29:56;8.40;74.20
21676;DHT22;10999;51.332;9.458;2022-12-29T17:32:24;8.40;74.60
21676;DHT22;10999;51.332;9.458;2022-12-29T17:34:51;8.40;75.10
21676;DHT22;10999;51.332;9.458;2022-12-29T17:39:50;8.40;76.80
21676;DHT22;10999;51.332;9.458;2022-12-29T17:42:18;8.40;79.20
21676;DHT22;10999;51.332;9.458;2022-12-29T17:44:45;8.40;80.80
21676;DHT22;10999;51.332;9.458;2022-12-29T17:47:12;8.30;81.60
21676;DHT22;10999;51.332;9.458;2022-12-29T17:49:41;8.30;82.00
21676;DHT22;10999;51.332;9.458;2022-12-29T17:52:13;8.20;82.80
21676;DHT22;10999;51.332;9.458;2022-12-29T17:54:51;8.20;83.80
21676;DHT22;10999;51.332;9.458;2022-12-29T17:57:19;8.20;85.60
21676;DHT22;10999;51.332;9.458;2022-12-29T17:59:47;8.20;86.60
21676;DHT22;10999;51.332;9.458;2022-12-29T18:02:24;8.10;87.10
21676;DHT22;10999;51.332;9.458;2022-12-29T18:04:52;8.00;86.90
21676;DHT22;10999;51.332;9.458;2022-12-29T18:07:19;7.90;86.90
21676;DHT22;10999;51.332;9.458;2022-12-29T18:09:46;7.90;87.30
21676;DHT22;10999;51.332;9.458;2022-12-29T18:12:33;7.80;86.80
21676;DHT22;10999;51.332;9.458;2022-12-29T18:15:03;7.80;86.30
21676;DHT22;10999;51.332;9.458;2022-12-29T18:17:29;7.90;85.40
21676;DHT22;10999;51.332;9.458;2022-12-29T18:19:56;7.90;85.80